createdAt,value
2019-05-10T00:00:29.875Z,13.58
2019-05-10T00:03:02.534Z,14.07
2019-05-10T00:05:35.622Z,13.78
2019-05-10T00:08:08.953Z,15.30
2019-05-10T00:10:39.832Z,13.72
2019-05-10T00:13:16.883Z,13.98
2019-05-10T00:15:58.022Z,15.08
2019-05-10T00:18:31.410Z,14.03
2019-05-10T00:21:02.399Z,14.23
2019-05-10T00:23:42.969Z,14.43
2019-05-10T00:26:14.107Z,14.18
2019-05-10T00:28:46.015Z,16.02
2019-05-10T00:31:18.204Z,15.45
2019-05-10T00:33:49.390Z,15.93
2019-05-10T00:36:22.269Z,16.25
2019-05-10T00:38:53.574Z,17.00
2019-05-10T00:41:24.845Z,17.55
2019-05-10T00:43:55.850Z,16.52
2019-05-10T00:46:28.111Z,17.23
2019-05-10T00:48:59.311Z,15.98
2019-05-10T00:51:31.427Z,15.55
2019-05-10T00:54:02.935Z,14.70
2019-05-10T00:56:34.747Z,16.23
2019-05-10T00:59:08.620Z,16.07
2019-05-10T01:01:40.130Z,15.38
2019-05-10T01:04:12.555Z,14.20
2019-05-10T01:06:44.178Z,14.07
2019-05-10T01:09:15.771Z,15.23
2019-05-10T01:11:47.079Z,13.58
2019-05-10T01:14:19.389Z,15.38
2019-05-10T01:16:51.076Z,14.30
2019-05-10T01:22:45.671Z,16.60
2019-05-10T01:25:17.157Z,15.78
2019-05-10T01:27:48.781Z,14.63
2019-05-10T01:30:21.131Z,13.45
2019-05-10T01:32:52.344Z,14.30
2019-05-10T01:35:24.166Z,14.40
2019-05-10T01:37:57.001Z,14.87
2019-05-10T01:40:28.266Z,12.78
2019-05-10T01:43:02.015Z,14.23
2019-05-10T01:45:38.887Z,14.90
2019-05-10T01:48:15.384Z,15.80
2019-05-10T01:51:00.705Z,16.73
2019-05-10T01:53:32.549Z,16.10
2019-05-10T01:56:12.174Z,15.72
2019-05-10T02:01:31.268Z,15.30
2019-05-10T02:04:02.761Z,16.12
2019-05-10T02:06:34.493Z,15.30
2019-05-10T02:09:07.467Z,15.45
2019-05-10T02:11:38.612Z,15.63
2019-05-10T02:14:09.654Z,15.30
2019-05-10T02:16:42.047Z,17.02
2019-05-10T02:19:13.189Z,16.23
2019-05-10T02:21:44.271Z,16.52
2019-05-10T02:24:15.797Z,18.10
2019-05-10T02:26:47.522Z,17.45
2019-05-10T02:35:29.236Z,17.07
2019-05-10T02:38:00.298Z,15.75
2019-05-10T02:40:31.735Z,18.40
2019-05-10T02:43:03.770Z,16.70
2019-05-10T02:45:35.615Z,17.45
2019-05-10T02:48:07.170Z,17.75
2019-05-10T02:50:38.634Z,17.50
2019-05-10T02:53:10.842Z,18.42
2019-05-10T02:55:45.170Z,17.77
2019-05-10T02:58:20.708Z,19.40
2019-05-10T03:00:54.026Z,18.87
2019-05-10T03:03:28.938Z,18.77
2019-05-10T03:06:01.480Z,17.45
2019-05-10T03:08:38.238Z,18.40
2019-05-10T03:11:12.372Z,18.90
2019-05-10T03:13:47.460Z,20.97
2019-05-10T03:16:21.007Z,20.77
2019-05-10T03:18:54.874Z,18.77
2019-05-10T03:21:27.680Z,21.10
2019-05-10T03:23:59.656Z,20.68
2019-05-10T03:26:49.673Z,20.08
2019-05-10T03:29:04.102Z,20.62
2019-05-10T03:31:35.269Z,19.20
2019-05-10T03:34:09.115Z,19.07
2019-05-10T03:36:42.138Z,19.90
2019-05-10T03:45:40.062Z,18.95
2019-05-10T03:48:16.130Z,18.12
2019-05-10T03:50:47.753Z,16.52
2019-05-10T03:53:19.387Z,17.48
2019-05-10T03:55:53.941Z,16.07
2019-05-10T03:58:25.228Z,17.60
2019-05-10T04:01:00.943Z,18.65
2019-05-10T04:03:32.167Z,17.67
2019-05-10T04:06:03.255Z,17.90
2019-05-10T04:08:34.887Z,18.70
2019-05-10T04:11:06.519Z,19.32
2019-05-10T04:13:37.995Z,20.55
2019-05-10T04:16:10.864Z,23.75
2019-05-10T04:18:42.323Z,21.97
2019-05-10T04:21:15.422Z,20.10
2019-05-10T04:23:47.143Z,19.10
2019-05-10T04:26:18.219Z,19.80
2019-05-10T04:28:52.350Z,18.02
2019-05-10T04:31:25.645Z,17.70
2019-05-10T04:34:01.744Z,17.50
2019-05-10T04:36:34.313Z,17.92
2019-05-10T04:39:15.731Z,17.10
2019-05-10T04:41:49.662Z,17.95
2019-05-10T04:44:22.137Z,18.70
2019-05-10T04:46:53.716Z,17.35
2019-05-10T04:49:24.778Z,16.90
2019-05-10T04:51:58.664Z,20.37
2019-05-10T04:58:09.855Z,21.90
2019-05-10T05:00:42.232Z,21.90
2019-05-10T05:12:48.850Z,18.87
2019-05-10T05:15:21.121Z,18.70
2019-05-10T05:17:52.584Z,18.67
2019-05-10T05:20:23.934Z,20.32
2019-05-10T05:22:57.560Z,19.32
2019-05-10T05:25:29.612Z,20.27
2019-05-10T05:28:07.837Z,20.43
2019-05-10T05:30:40.915Z,22.40
2019-05-10T05:33:12.757Z,21.82
2019-05-10T05:35:45.453Z,20.85
2019-05-10T05:38:16.782Z,22.02
2019-05-10T05:40:49.159Z,20.08
2019-05-10T05:43:21.019Z,16.93
2019-05-10T05:45:53.491Z,18.37
2019-05-10T05:48:39.550Z,18.48
2019-05-10T05:50:58.477Z,18.10
2019-05-10T05:53:30.153Z,18.92
2019-05-10T05:56:03.520Z,18.73
2019-05-10T05:58:37.970Z,19.82
2019-05-10T06:01:07.720Z,19.23
2019-05-10T06:03:39.086Z,20.37
2019-05-10T06:06:21.571Z,18.98
2019-05-10T06:11:35.918Z,18.57
2019-05-10T06:14:10.784Z,17.87
2019-05-10T06:16:45.166Z,19.50
2019-05-10T06:19:12.703Z,17.70
2019-05-10T06:21:44.327Z,18.48
2019-05-10T06:24:16.741Z,17.23
2019-05-10T06:26:48.570Z,18.02
2019-05-10T06:29:20.520Z,18.42
2019-05-10T06:31:51.648Z,17.48
2019-05-10T06:34:31.800Z,18.85
2019-05-10T06:37:01.280Z,17.57
2019-05-10T06:39:32.593Z,18.90
2019-05-10T06:42:05.064Z,18.52
2019-05-10T06:44:36.505Z,18.32
2019-05-10T06:47:11.204Z,19.23
2019-05-10T06:49:50.651Z,19.05
2019-05-10T06:52:16.404Z,19.87
2019-05-10T06:54:47.913Z,20.35
2019-05-10T06:57:22.050Z,21.35
2019-05-10T06:59:56.993Z,19.67
2019-05-10T07:02:29.826Z,20.30
2019-05-10T07:04:58.950Z,20.37
2019-05-10T07:07:43.174Z,21.40
2019-05-10T07:10:12.945Z,18.37
2019-05-10T07:12:36.086Z,19.60
2019-05-10T07:15:09.661Z,21.33
2019-05-10T07:17:46.904Z,20.97
2019-05-10T07:20:16.194Z,20.82
2019-05-10T07:22:47.878Z,21.52
2019-05-10T07:25:19.364Z,20.37
2019-05-10T07:27:50.573Z,22.10
2019-05-10T07:30:24.675Z,22.70
2019-05-10T07:32:59.866Z,21.52
2019-05-10T07:35:31.079Z,22.77
2019-05-10T07:44:11.999Z,22.37
2019-05-10T07:46:47.062Z,23.42
2019-05-10T07:49:18.708Z,22.32
2019-05-10T07:51:51.542Z,22.90
2019-05-10T07:54:23.914Z,22.65
2019-05-10T07:56:54.998Z,21.27
2019-05-10T07:59:30.425Z,23.98
2019-05-10T08:01:59.608Z,22.07
2019-05-10T08:04:33.518Z,21.45
2019-05-10T08:07:05.583Z,22.13
2019-05-10T08:16:11.898Z,22.25
2019-05-10T08:18:42.409Z,22.13
2019-05-10T08:21:21.850Z,19.85
2019-05-10T08:23:47.512Z,21.27
2019-05-10T08:26:22.474Z,20.17
2019-05-10T08:28:52.372Z,20.65
2019-05-10T08:31:25.888Z,21.40
2019-05-10T08:33:59.254Z,21.30
2019-05-10T08:36:32.220Z,20.88
2019-05-10T08:39:10.477Z,21.42
2019-05-10T08:41:42.738Z,20.85
2019-05-10T08:44:19.292Z,21.40
2019-05-10T08:46:47.591Z,19.15
2019-05-10T08:49:22.151Z,19.42
2019-05-10T08:51:56.178Z,22.13
2019-05-10T08:54:27.884Z,19.87
2019-05-10T08:57:01.030Z,18.57
2019-05-10T09:05:52.699Z,19.82
2019-05-10T09:15:05.254Z,17.52
2019-05-10T09:17:29.115Z,17.70
2019-05-10T09:20:03.677Z,17.20
2019-05-10T09:22:38.602Z,16.67
2019-05-10T09:25:14.841Z,16.02
2019-05-10T09:27:46.662Z,16.30
2019-05-10T09:30:21.990Z,15.58
2019-05-10T09:32:55.484Z,14.78
2019-05-10T09:35:26.613Z,14.28
2019-05-10T09:37:58.715Z,15.65
2019-05-10T09:40:32.699Z,17.02
2019-05-10T09:43:09.363Z,17.40
2019-05-10T09:45:42.182Z,15.38
2019-05-10T09:48:12.287Z,15.72
2019-05-10T09:50:47.038Z,14.40
2019-05-10T09:53:22.422Z,14.15
2019-05-10T09:56:00.146Z,13.85
2019-05-10T09:58:24.872Z,14.07
2019-05-10T10:01:12.818Z,12.70
2019-05-10T10:03:30.014Z,12.60
2019-05-10T10:06:07.313Z,12.47
2019-05-10T10:08:34.962Z,12.90
2019-05-10T10:11:11.553Z,14.40
2019-05-10T10:13:43.415Z,12.55
2019-05-10T10:16:14.752Z,13.72
2019-05-10T10:18:49.695Z,13.78
2019-05-10T10:21:30.794Z,14.28
2019-05-10T10:23:57.429Z,14.43
2019-05-10T10:26:29.396Z,13.93
2019-05-10T10:29:00.936Z,14.55
2019-05-10T10:31:33.793Z,14.30
2019-05-10T10:34:07.533Z,14.13
2019-05-10T10:36:42.785Z,12.78
2019-05-10T10:39:11.850Z,13.70
2019-05-10T10:41:45.137Z,13.85
2019-05-10T10:44:18.014Z,13.72
2019-05-10T10:46:48.698Z,13.60
2019-05-10T10:49:26.916Z,14.18
2019-05-10T10:51:57.278Z,13.60
2019-05-10T10:54:33.805Z,14.58
2019-05-10T10:57:00.508Z,14.05
2019-05-10T10:59:31.664Z,13.83
2019-05-10T11:02:28.839Z,15.80
2019-05-10T11:04:40.571Z,15.25
2019-05-10T11:07:10.795Z,14.35
2019-05-10T11:09:42.470Z,14.78
2019-05-10T11:12:17.900Z,15.35
2019-05-10T11:14:46.462Z,14.73
2019-05-10T11:17:18.054Z,15.72
2019-05-10T11:19:49.512Z,15.63
2019-05-10T11:22:21.523Z,16.40
2019-05-10T11:25:03.059Z,17.05
2019-05-10T11:27:24.909Z,15.85
2019-05-10T11:29:56.813Z,17.27
2019-05-10T11:32:27.683Z,16.77
2019-05-10T11:34:59.054Z,16.62
2019-05-10T11:37:34.448Z,17.87
2019-05-10T11:40:03.247Z,17.12
2019-05-10T11:42:37.620Z,17.05
2019-05-10T11:45:11.068Z,15.88
2019-05-10T11:47:48.092Z,16.25
2019-05-10T11:50:31.411Z,16.65
2019-05-10T11:52:57.105Z,16.95
2019-05-10T11:55:30.939Z,15.98
2019-05-10T11:58:08.515Z,16.10
2019-05-10T12:00:35.047Z,17.73
2019-05-10T12:05:38.712Z,18.05
2019-05-10T12:08:13.130Z,18.35
2019-05-10T12:10:53.063Z,17.48
2019-05-10T12:13:24.728Z,19.00
2019-05-10T12:15:53.403Z,17.30
2019-05-10T12:18:26.895Z,18.42
2019-05-10T12:21:08.949Z,19.00
2019-05-10T12:23:31.697Z,19.65
2019-05-10T12:26:04.972Z,18.12
2019-05-10T12:28:40.624Z,19.23
2019-05-10T12:31:15.100Z,18.90
2019-05-10T12:33:45.330Z,18.77
2019-05-10T12:36:25.502Z,19.57
2019-05-10T12:38:53.082Z,24.20
2019-05-10T12:41:24.085Z,22.40
2019-05-10T12:44:02.962Z,24.47
2019-05-10T12:46:28.006Z,25.37
2019-05-10T12:49:02.099Z,25.23
2019-05-10T12:51:33.942Z,24.87
2019-05-10T12:54:05.181Z,24.98
2019-05-10T12:56:44.000Z,25.32
2019-05-10T12:59:11.443Z,23.10
2019-05-10T13:01:42.503Z,25.30
2019-05-10T13:04:16.716Z,24.60
2019-05-10T13:06:46.027Z,23.35
2019-05-10T13:09:17.241Z,22.50
2019-05-10T13:11:48.328Z,23.87
2019-05-10T13:14:22.505Z,24.35
2019-05-10T13:16:53.650Z,24.00
2019-05-10T13:19:24.823Z,24.12
2019-05-10T13:21:58.872Z,24.52
2019-05-10T13:24:28.372Z,26.50
2019-05-10T13:27:03.145Z,26.62
2019-05-10T13:29:32.172Z,27.45
2019-05-10T13:32:03.516Z,26.75
2019-05-10T13:34:34.583Z,26.23
2019-05-10T13:37:05.567Z,25.57
2019-05-10T13:39:37.644Z,26.20
2019-05-10T13:42:09.741Z,29.30
2019-05-10T13:44:42.797Z,24.60
2019-05-10T13:47:13.489Z,24.45
2019-05-10T13:49:48.579Z,25.62
2019-05-10T13:52:18.428Z,24.47
2019-05-10T13:54:49.524Z,22.93
2019-05-10T13:57:21.335Z,24.15
2019-05-10T13:59:55.124Z,23.15
2019-05-10T14:02:32.451Z,25.77
2019-05-10T14:04:57.875Z,23.75
2019-05-10T14:07:28.928Z,23.15
2019-05-10T14:10:23.386Z,23.38
2019-05-10T14:12:56.186Z,22.93
2019-05-10T14:15:26.678Z,21.45
2019-05-10T14:17:57.802Z,20.97
2019-05-10T14:20:29.025Z,21.12
2019-05-10T14:23:00.340Z,21.97
2019-05-10T14:25:36.490Z,19.62
2019-05-10T14:28:09.470Z,17.10
2019-05-10T14:30:36.463Z,15.55
2019-05-10T14:33:08.630Z,14.98
2019-05-10T14:35:39.991Z,13.50
2019-05-10T14:38:11.060Z,14.47
2019-05-10T14:40:42.111Z,13.72
2019-05-10T14:43:13.283Z,14.35
2019-05-10T14:45:44.158Z,12.68
2019-05-10T14:48:16.518Z,13.75
2019-05-10T14:50:47.616Z,14.28
2019-05-10T14:53:19.769Z,14.23
2019-05-10T14:55:51.096Z,13.93
2019-05-10T14:58:22.265Z,14.65
2019-05-10T15:00:53.432Z,14.80
2019-05-10T15:03:26.866Z,16.17
2019-05-10T15:06:01.570Z,16.73
2019-05-10T15:08:30.450Z,17.25
2019-05-10T15:11:01.477Z,18.73
2019-05-10T15:13:34.923Z,17.10
2019-05-10T15:16:08.207Z,17.10
2019-05-10T15:18:37.277Z,17.77
2019-05-10T15:21:08.586Z,16.87
2019-05-10T15:23:39.390Z,18.05
2019-05-10T15:26:12.117Z,20.23
2019-05-10T15:28:42.861Z,18.73
2019-05-10T15:31:16.900Z,19.10
2019-05-10T15:33:47.917Z,19.35
2019-05-10T15:36:23.568Z,17.70
2019-05-10T15:38:52.298Z,17.60
2019-05-10T15:41:24.037Z,16.80
2019-05-10T15:43:55.245Z,17.75
2019-05-10T15:46:35.367Z,16.55
2019-05-10T15:48:58.856Z,17.67
2019-05-10T15:51:36.156Z,16.93
2019-05-10T15:54:04.910Z,17.02
2019-05-10T15:59:12.632Z,18.07
2019-05-10T15:59:23.581Z,17.60
2019-05-10T16:01:40.565Z,17.40
2019-05-10T16:04:11.769Z,18.55
2019-05-10T16:06:43.074Z,18.17
2019-05-10T16:09:19.155Z,18.25
2019-05-10T16:11:46.926Z,18.77
2019-05-10T16:14:17.758Z,18.73
2019-05-10T16:16:48.967Z,17.92
2019-05-10T16:19:20.375Z,17.77
2019-05-10T16:21:52.526Z,18.57
2019-05-10T16:24:26.151Z,18.90
2019-05-10T16:27:00.247Z,18.17
2019-05-10T16:29:28.193Z,18.77
2019-05-10T16:31:59.297Z,22.32
2019-05-10T16:34:32.480Z,18.23
2019-05-10T16:37:03.385Z,16.97
2019-05-10T16:39:34.324Z,17.40
2019-05-10T16:42:05.457Z,16.93
2019-05-10T16:44:36.496Z,17.42
2019-05-10T16:47:07.716Z,17.92
2019-05-10T16:49:38.646Z,17.77
2019-05-10T16:52:09.667Z,17.80
2019-05-10T16:54:40.993Z,17.27
2019-05-10T16:57:12.144Z,17.15
2019-05-10T16:59:45.193Z,18.42
2019-05-10T17:02:16.240Z,18.05
2019-05-10T17:04:47.253Z,17.50
2019-05-10T17:07:21.121Z,17.67
2019-05-10T17:09:54.757Z,19.10
2019-05-10T17:12:27.712Z,19.05
2019-05-10T17:15:02.816Z,17.62
2019-05-10T17:17:31.120Z,18.02
2019-05-10T17:20:07.509Z,16.57
2019-05-10T17:22:36.073Z,17.35
2019-05-10T17:25:08.875Z,15.98
2019-05-10T17:27:40.146Z,15.93
2019-05-10T17:30:13.259Z,16.45
2019-05-10T17:32:44.275Z,17.27
2019-05-10T17:35:15.361Z,16.57
2019-05-10T17:37:46.521Z,16.90
2019-05-10T17:40:17.568Z,15.10
2019-05-10T17:42:51.378Z,17.12
2019-05-10T17:45:21.177Z,16.55
2019-05-10T17:47:53.193Z,15.98
2019-05-10T17:50:24.195Z,17.02
2019-05-10T17:52:55.333Z,16.12
2019-05-10T17:55:26.452Z,16.85
2019-05-10T17:57:57.669Z,17.07
2019-05-10T18:00:28.834Z,17.45
2019-05-10T18:03:00.165Z,16.73
2019-05-10T18:05:31.015Z,17.32
2019-05-10T18:08:02.013Z,15.65
2019-05-10T18:10:35.970Z,16.23
2019-05-10T18:13:07.138Z,17.25
2019-05-10T18:15:38.295Z,16.10
2019-05-10T18:18:09.496Z,15.95
2019-05-10T18:20:42.238Z,15.13
2019-05-10T18:23:20.467Z,15.72
2019-05-10T18:25:45.162Z,15.10
2019-05-10T18:28:18.996Z,15.45
2019-05-10T18:30:48.385Z,15.50
2019-05-10T18:33:19.542Z,15.65
2019-05-10T18:35:52.690Z,14.43
2019-05-10T18:38:23.011Z,16.42
2019-05-10T18:40:54.092Z,15.45
2019-05-10T18:43:25.148Z,15.65
2019-05-10T18:46:01.251Z,16.75
2019-05-10T18:48:28.758Z,15.60
2019-05-10T18:50:59.988Z,14.90
2019-05-10T18:53:30.864Z,14.55
2019-05-10T18:56:01.867Z,15.43
2019-05-10T18:58:33.214Z,15.83
2019-05-10T19:01:04.169Z,15.88
2019-05-10T19:03:35.529Z,15.50
2019-05-10T19:06:10.856Z,15.93
2019-05-10T19:08:39.409Z,14.98
2019-05-10T19:11:10.772Z,15.53
2019-05-10T19:13:47.868Z,17.70
2019-05-10T19:16:14.439Z,19.00
2019-05-10T19:18:45.408Z,17.12
2019-05-10T19:21:16.410Z,16.40
2019-05-10T19:23:52.174Z,16.70
2019-05-10T19:26:23.916Z,16.48
2019-05-10T19:28:52.300Z,17.52
2019-05-10T19:31:23.378Z,16.10
2019-05-10T19:33:54.288Z,17.17
2019-05-10T19:36:25.690Z,17.52
2019-05-10T19:38:56.853Z,16.62
2019-05-10T19:41:28.084Z,18.30
2019-05-10T19:44:02.336Z,18.92
2019-05-10T19:46:39.128Z,17.73
2019-05-10T19:49:07.579Z,17.37
2019-05-10T19:51:36.306Z,17.02
2019-05-10T19:54:07.432Z,17.45
2019-05-10T19:56:38.864Z,16.95
2019-05-10T19:59:11.817Z,16.50
2019-05-10T20:01:45.113Z,17.20
2019-05-10T20:04:15.335Z,17.70
2019-05-10T20:06:46.512Z,18.15
2019-05-10T20:09:17.815Z,16.97
2019-05-10T20:11:48.995Z,18.32
2019-05-10T20:14:19.983Z,19.37
2019-05-10T20:16:53.217Z,19.35
2019-05-10T20:19:23.905Z,18.32
2019-05-10T20:21:54.810Z,19.50
2019-05-10T20:24:25.924Z,18.27
2019-05-10T20:26:57.178Z,19.02
2019-05-10T20:29:28.151Z,19.12
2019-05-10T20:32:00.564Z,20.65
2019-05-10T20:34:31.762Z,21.05
2019-05-10T20:37:02.954Z,19.90
2019-05-10T20:39:34.019Z,21.27
2019-05-10T20:42:06.846Z,21.05
2019-05-10T20:44:38.016Z,22.22
2019-05-10T20:47:09.198Z,19.95
2019-05-10T20:49:40.401Z,21.48
2019-05-10T20:52:11.574Z,21.48
2019-05-10T20:54:42.644Z,19.90
2019-05-10T20:57:13.719Z,20.02
2019-05-10T20:59:44.570Z,19.70
2019-05-10T21:02:15.514Z,17.67
2019-05-10T21:04:46.790Z,17.87
2019-05-10T21:07:18.046Z,19.12
2019-05-10T21:09:48.882Z,19.27
2019-05-10T21:12:20.374Z,18.07
2019-05-10T21:14:51.403Z,17.02
2019-05-10T21:17:22.404Z,18.15
2019-05-10T21:19:53.466Z,17.75
2019-05-10T21:22:24.486Z,20.40
2019-05-10T21:24:55.431Z,18.95
2019-05-10T21:27:26.361Z,18.02
2019-05-10T21:29:57.461Z,19.32
2019-05-10T21:32:28.721Z,19.23
2019-05-10T21:35:00.016Z,20.68
2019-05-10T21:37:31.049Z,20.08
2019-05-10T21:40:02.125Z,18.90
2019-05-10T21:42:33.326Z,19.75
2019-05-10T21:45:04.445Z,19.95
2019-05-10T21:47:49.531Z,20.05
2019-05-10T21:50:09.408Z,20.15
2019-05-10T21:52:40.609Z,24.35
2019-05-10T21:55:11.786Z,23.07
2019-05-10T21:57:42.932Z,20.32
2019-05-10T22:00:15.516Z,20.48
2019-05-10T22:02:46.650Z,21.23
2019-05-10T22:05:17.728Z,20.50
2019-05-10T22:07:48.953Z,19.65
2019-05-10T22:10:19.942Z,20.10
2019-05-10T22:12:50.970Z,19.32
2019-05-10T22:15:22.288Z,19.70
2019-05-10T22:17:53.543Z,23.38
2019-05-10T22:20:24.507Z,22.80
2019-05-10T22:22:55.740Z,22.65
2019-05-10T22:25:26.826Z,20.70
2019-05-10T22:27:57.625Z,19.23
2019-05-10T22:30:29.024Z,19.17
2019-05-10T22:33:00.179Z,18.37
2019-05-10T22:35:31.191Z,18.35
2019-05-10T22:38:02.394Z,18.27
2019-05-10T22:40:33.470Z,19.17
2019-05-10T22:43:04.374Z,18.82
2019-05-10T22:45:35.556Z,17.95
2019-05-10T22:48:06.891Z,18.80
2019-05-10T22:50:38.206Z,17.95
2019-05-10T22:53:09.386Z,18.32
2019-05-10T22:55:40.456Z,17.92
2019-05-10T22:58:11.543Z,18.37
2019-05-10T23:00:42.768Z,18.20
2019-05-10T23:03:13.741Z,19.80
2019-05-10T23:05:44.878Z,17.62
2019-05-10T23:08:15.745Z,16.67
2019-05-10T23:10:46.657Z,17.70
2019-05-10T23:13:17.759Z,17.73
2019-05-10T23:15:48.655Z,17.48
2019-05-10T23:18:19.794Z,17.90
2019-05-10T23:20:50.784Z,17.27
2019-05-10T23:23:21.988Z,19.17
2019-05-10T23:25:52.875Z,17.57
2019-05-10T23:28:23.773Z,17.42
2019-05-10T23:30:54.984Z,18.23
2019-05-10T23:33:25.864Z,16.87
2019-05-10T23:35:56.854Z,16.23
2019-05-10T23:38:27.971Z,16.45
2019-05-10T23:40:59.029Z,18.42
2019-05-10T23:43:30.349Z,17.35
2019-05-10T23:46:01.385Z,17.67
2019-05-10T23:48:32.392Z,17.40
2019-05-10T23:51:03.794Z,16.57
2019-05-10T23:53:35.017Z,15.98
2019-05-10T23:56:06.134Z,15.60
2019-05-10T23:58:37.256Z,16.17
